createdAt,value
2023-03-01T00:00:35.556Z,1004.05
2023-03-01T00:01:35.520Z,1004.05
2023-03-01T00:02:35.629Z,1004.06
2023-03-01T00:03:35.532Z,1004.03
2023-03-01T00:04:35.505Z,1004.05
2023-03-01T00:05:35.450Z,1004.04
2023-03-01T00:06:35.468Z,1004.04
2023-03-01T00:07:35.536Z,1004.06
2023-03-01T00:08:36.542Z,1004.11
2023-03-01T00:09:35.439Z,1004.12
2023-03-01T00:10:35.383Z,1004.12
2023-03-01T00:11:35.437Z,1004.19
2023-03-01T00:12:35.403Z,1004.19
2023-03-01T00:13:35.354Z,1004.19
2023-03-01T00:14:35.504Z,1004.21
2023-03-01T00:15:35.280Z,1004.19
2023-03-01T00:16:35.314Z,1004.19
2023-03-01T00:17:35.291Z,1004.19
2023-03-01T00:18:35.246Z,1004.20
2023-03-01T00:19:35.224Z,1004.16
2023-03-01T00:20:35.215Z,1004.17
2023-03-01T00:21:35.214Z,1004.20
2023-03-01T00:22:35.194Z,1004.19
2023-03-01T00:23:35.156Z,1004.18
2023-03-01T00:24:35.149Z,1004.17
2023-03-01T00:25:35.118Z,1004.19
2023-03-01T00:26:35.524Z,1004.16
2023-03-01T00:27:35.306Z,1004.12
2023-03-01T00:28:35.090Z,1004.11
2023-03-01T00:29:35.080Z,1004.07
2023-03-01T00:30:35.082Z,1004.08
2023-03-01T00:31:35.234Z,1004.05
2023-03-01T00:32:35.022Z,1004.06
2023-03-01T00:33:35.006Z,1004.02
2023-03-01T00:34:34.977Z,1004.00
2023-03-01T00:35:34.984Z,1004.02
2023-03-01T00:36:35.146Z,1004.00
2023-03-01T00:37:34.941Z,1004.00
2023-03-01T00:38:34.902Z,1004.00
2023-03-01T00:39:34.913Z,1004.03
2023-03-01T00:40:35.068Z,1004.02
2023-03-01T00:41:34.929Z,1004.00
2023-03-01T00:42:34.847Z,1004.02
2023-03-01T00:43:34.829Z,1003.98
2023-03-01T00:44:34.835Z,1003.95
2023-03-01T00:45:34.804Z,1003.96
2023-03-01T00:46:35.316Z,1003.96
2023-03-01T00:47:34.791Z,1003.96
2023-03-01T00:48:34.752Z,1003.98
2023-03-01T00:49:34.736Z,1003.93
2023-03-01T00:50:34.701Z,1003.96
2023-03-01T00:51:34.698Z,1003.96
2023-03-01T00:52:34.896Z,1003.92
2023-03-01T00:53:34.664Z,1003.95
2023-03-01T00:54:34.650Z,1003.94
2023-03-01T00:55:34.649Z,1003.88
2023-03-01T00:56:34.803Z,1003.89
2023-03-01T00:57:34.797Z,1003.89
2023-03-01T00:58:34.578Z,1003.90
2023-03-01T00:59:34.555Z,1003.91
2023-03-01T01:00:34.576Z,1003.90
2023-03-01T01:01:34.571Z,1003.91
2023-03-01T01:02:34.551Z,1003.86
2023-03-01T01:03:34.524Z,1003.85
2023-03-01T01:04:34.475Z,1003.84
2023-03-01T01:05:34.448Z,1003.84
2023-03-01T01:06:34.463Z,1003.81
2023-03-01T01:07:34.421Z,1003.80
2023-03-01T01:08:34.410Z,1003.78
2023-03-01T01:09:34.573Z,1003.83
2023-03-01T01:10:34.396Z,1003.82
2023-03-01T01:11:34.353Z,1003.80
2023-03-01T01:12:34.338Z,1003.83
2023-03-01T01:13:34.347Z,1003.79
2023-03-01T01:14:34.310Z,1003.80
2023-03-01T01:15:34.313Z,1003.77
2023-03-01T01:16:34.386Z,1003.81
2023-03-01T01:17:34.250Z,1003.78
2023-03-01T01:18:34.233Z,1003.79
2023-03-01T01:19:34.211Z,1003.77
2023-03-01T01:20:34.198Z,1003.77
2023-03-01T01:21:34.198Z,1003.74
2023-03-01T01:22:34.169Z,1003.77
2023-03-01T01:23:34.153Z,1003.77
2023-03-01T01:24:34.136Z,1003.78
2023-03-01T01:25:34.517Z,1003.75
2023-03-01T01:26:34.415Z,1003.72
2023-03-01T01:27:34.084Z,1003.71
2023-03-01T01:28:34.063Z,1003.69
2023-03-01T01:29:34.050Z,1003.68
2023-03-01T01:30:34.070Z,1003.68
2023-03-01T01:31:34.114Z,1003.67
2023-03-01T01:32:34.037Z,1003.65
2023-03-01T01:33:34.009Z,1003.66
2023-03-01T01:34:33.976Z,1003.63
2023-03-01T01:35:34.013Z,1003.61
2023-03-01T01:36:33.930Z,1003.57
2023-03-01T01:37:33.924Z,1003.58
2023-03-01T01:38:33.897Z,1003.55
2023-03-01T01:39:33.908Z,1003.52
2023-03-01T01:40:33.871Z,1003.54
2023-03-01T01:41:33.886Z,1003.50
2023-03-01T01:42:33.862Z,1003.51
2023-03-01T01:43:33.854Z,1003.52
2023-03-01T01:44:33.820Z,1003.49
2023-03-01T01:45:33.801Z,1003.46
2023-03-01T01:46:34.258Z,1003.39
2023-03-01T01:47:33.773Z,1003.35
2023-03-01T01:48:33.774Z,1003.29
2023-03-01T01:49:33.769Z,1003.31
2023-03-01T01:50:33.714Z,1003.30
2023-03-01T01:51:33.688Z,1003.28
2023-03-01T01:52:33.711Z,1003.30
2023-03-01T01:53:33.682Z,1003.27
2023-03-01T01:54:33.664Z,1003.28
2023-03-01T01:55:33.624Z,1003.27
2023-03-01T01:56:33.602Z,1003.28
2023-03-01T01:57:33.624Z,1003.25
2023-03-01T01:58:33.597Z,1003.18
2023-03-01T01:59:33.617Z,1003.14
2023-03-01T02:00:33.550Z,1003.09
2023-03-01T02:01:33.525Z,1003.05
2023-03-01T02:02:33.606Z,1003.04
2023-03-01T02:03:33.630Z,1003.08
2023-03-01T02:04:33.540Z,1003.12
2023-03-01T02:05:33.443Z,1003.12
2023-03-01T02:06:33.678Z,1003.12
2023-03-01T02:07:33.413Z,1003.14
2023-03-01T02:08:33.392Z,1003.14
2023-03-01T02:09:33.487Z,1003.14
2023-03-01T02:10:33.385Z,1003.10
2023-03-01T02:11:33.386Z,1003.08
2023-03-01T02:12:33.370Z,1003.08
2023-03-01T02:13:33.346Z,1003.05
2023-03-01T02:14:33.333Z,1003.04
2023-03-01T02:15:33.296Z,1003.05
2023-03-01T02:16:33.817Z,1003.00
2023-03-01T02:17:33.258Z,1002.97
2023-03-01T02:18:33.255Z,1002.97
2023-03-01T02:19:33.230Z,1002.99
2023-03-01T02:20:33.245Z,1002.97
2023-03-01T02:21:33.222Z,1003.04
2023-03-01T02:23:33.154Z,1003.02
2023-03-01T02:24:33.138Z,1003.00
2023-03-01T02:25:33.345Z,1002.97
2023-03-01T02:26:33.258Z,1002.96
2023-03-01T02:27:33.120Z,1002.96
2023-03-01T02:28:33.086Z,1002.95
2023-03-01T02:29:33.072Z,1002.90
2023-03-01T02:30:33.460Z,1002.96
2023-03-01T02:31:33.078Z,1002.94
2023-03-01T02:32:33.002Z,1002.93
2023-03-01T02:33:33.006Z,1002.93
2023-03-01T02:34:32.987Z,1002.95
2023-03-01T02:35:33.081Z,1002.96
2023-03-01T02:36:33.301Z,1002.99
2023-03-01T02:37:32.989Z,1003.00
2023-03-01T02:38:32.912Z,1003.00
2023-03-01T02:39:32.878Z,1003.00
2023-03-01T02:40:32.897Z,1003.00
2023-03-01T02:41:32.873Z,1002.94
2023-03-01T02:42:32.816Z,1002.97
2023-03-01T02:43:32.855Z,1002.96
2023-03-01T02:44:32.832Z,1002.92
2023-03-01T02:45:32.773Z,1002.86
2023-03-01T02:46:33.207Z,1002.85
2023-03-01T02:47:32.757Z,1002.90
2023-03-01T02:48:32.729Z,1002.96
2023-03-01T02:49:32.744Z,1002.98
2023-03-01T02:50:32.668Z,1003.00
2023-03-01T02:51:32.697Z,1003.01
2023-03-01T02:52:32.682Z,1003.02
2023-03-01T02:53:32.660Z,1002.96
2023-03-01T02:54:32.634Z,1002.99
2023-03-01T02:55:32.627Z,1002.96
2023-03-01T02:56:32.747Z,1002.99
2023-03-01T02:57:32.555Z,1003.01
2023-03-01T02:58:32.571Z,1002.99
2023-03-01T02:59:32.562Z,1003.00
2023-03-01T03:00:32.554Z,1002.98
2023-03-01T03:01:32.524Z,1002.97
2023-03-01T03:02:32.505Z,1002.98
2023-03-01T03:03:32.507Z,1002.98
2023-03-01T03:04:32.462Z,1002.98
2023-03-01T03:05:32.453Z,1003.02
2023-03-01T03:06:32.594Z,1002.96
2023-03-01T03:07:32.422Z,1002.96
2023-03-01T03:08:32.419Z,1002.95
2023-03-01T03:09:32.365Z,1002.97
2023-03-01T03:10:32.357Z,1002.95
2023-03-01T03:11:32.315Z,1002.98
2023-03-01T03:12:32.320Z,1003.05
2023-03-01T03:13:32.328Z,1003.06
2023-03-01T03:14:32.329Z,1003.07
2023-03-01T03:15:32.267Z,1003.03
2023-03-01T03:16:32.621Z,1003.02
2023-03-01T03:17:32.249Z,1003.00
2023-03-01T03:18:32.207Z,1002.97
2023-03-01T03:19:32.228Z,1002.97
2023-03-01T03:20:32.157Z,1002.96
2023-03-01T03:21:32.156Z,1002.96
2023-03-01T03:22:32.129Z,1002.96
2023-03-01T03:23:32.114Z,1002.94
2023-03-01T03:24:32.111Z,1002.93
2023-03-01T03:25:32.101Z,1002.98
2023-03-01T03:26:32.478Z,1002.94
2023-03-01T03:27:32.055Z,1002.97
2023-03-01T03:28:32.043Z,1002.94
2023-03-01T03:29:32.024Z,1002.92
2023-03-01T03:30:31.978Z,1002.88
2023-03-01T03:31:32.050Z,1002.91
2023-03-01T03:32:32.033Z,1002.89
2023-03-01T03:33:31.932Z,1002.89
2023-03-01T03:34:31.953Z,1002.91
2023-03-01T03:35:32.013Z,1002.87
2023-03-01T03:36:32.117Z,1002.89
2023-03-01T03:37:31.864Z,1002.89
2023-03-01T03:38:31.851Z,1002.88
2023-03-01T03:39:31.831Z,1002.84
2023-03-01T03:40:31.830Z,1002.86
2023-03-01T03:41:31.800Z,1002.88
2023-03-01T03:42:31.794Z,1002.86
2023-03-01T03:43:31.845Z,1002.91
2023-03-01T03:44:31.771Z,1002.87
2023-03-01T03:45:31.785Z,1002.87
2023-03-01T03:46:32.111Z,1002.87
2023-03-01T03:47:31.693Z,1002.86
2023-03-01T03:48:31.697Z,1002.85
2023-03-01T03:49:31.888Z,1002.85
2023-03-01T03:50:31.713Z,1002.85
2023-03-01T03:51:31.614Z,1002.83
2023-03-01T03:52:31.595Z,1002.83
2023-03-01T03:53:31.599Z,1002.82
2023-03-01T03:54:31.569Z,1002.78
2023-03-01T03:55:31.731Z,1002.78
2023-03-01T03:56:31.861Z,1002.76
2023-03-01T03:57:31.515Z,1002.70
2023-03-01T03:58:31.519Z,1002.68
2023-03-01T03:59:31.481Z,1002.69
2023-03-01T04:00:31.473Z,1002.69
2023-03-01T04:01:31.499Z,1002.70
2023-03-01T04:02:31.425Z,1002.69
2023-03-01T04:03:31.412Z,1002.71
2023-03-01T04:04:31.394Z,1002.68
2023-03-01T04:05:31.392Z,1002.68
2023-03-01T04:06:31.730Z,1002.69
2023-03-01T04:07:31.321Z,1002.69
2023-03-01T04:08:31.322Z,1002.70
2023-03-01T04:09:31.304Z,1002.68
2023-03-01T04:10:31.296Z,1002.70
2023-03-01T04:11:31.283Z,1002.68
2023-03-01T04:12:31.265Z,1002.70
2023-03-01T04:13:31.231Z,1002.73
2023-03-01T04:14:31.223Z,1002.69
2023-03-01T04:15:31.194Z,1002.74
2023-03-01T04:16:31.453Z,1002.74
2023-03-01T04:17:31.149Z,1002.74
2023-03-01T04:18:31.140Z,1002.72
2023-03-01T04:19:31.131Z,1002.67
2023-03-01T04:20:31.131Z,1002.65
2023-03-01T04:21:31.074Z,1002.66
2023-03-01T04:22:31.088Z,1002.60
2023-03-01T04:23:31.048Z,1002.61
2023-03-01T04:24:31.041Z,1002.58
2023-03-01T04:25:31.024Z,1002.59
2023-03-01T04:26:31.362Z,1002.55
2023-03-01T04:27:30.979Z,1002.59
2023-03-01T04:28:31.019Z,1002.57
2023-03-01T04:29:30.947Z,1002.56
2023-03-01T04:30:30.929Z,1002.56
2023-03-01T04:31:31.198Z,1002.55
2023-03-01T04:32:31.010Z,1002.57
2023-03-01T04:33:30.886Z,1002.54
2023-03-01T04:34:30.865Z,1002.51
2023-03-01T04:35:30.933Z,1002.52
2023-03-01T04:36:31.678Z,1002.50
2023-03-01T04:37:30.816Z,1002.54
2023-03-01T04:38:30.802Z,1002.56
2023-03-01T04:39:30.782Z,1002.59
2023-03-01T04:40:30.770Z,1002.56
2023-03-01T04:41:30.767Z,1002.54
2023-03-01T04:42:30.775Z,1002.52
2023-03-01T04:43:30.699Z,1002.47
2023-03-01T04:44:30.926Z,1002.47
2023-03-01T04:45:30.912Z,1002.49
2023-03-01T04:46:30.966Z,1002.53
2023-03-01T04:47:30.644Z,1002.54
2023-03-01T04:48:30.626Z,1002.55
2023-03-01T04:49:30.614Z,1002.57
2023-03-01T04:50:30.777Z,1002.54
2023-03-01T04:51:30.572Z,1002.57
2023-03-01T04:52:30.548Z,1002.52
2023-03-01T04:53:30.542Z,1002.58
2023-03-01T04:54:30.510Z,1002.55
2023-03-01T04:55:30.523Z,1002.46
2023-03-01T04:56:30.887Z,1002.50
2023-03-01T04:57:30.467Z,1002.51
2023-03-01T04:58:30.480Z,1002.53
2023-03-01T04:59:30.433Z,1002.44
2023-03-01T05:00:30.443Z,1002.43
2023-03-01T05:01:30.425Z,1002.42
2023-03-01T05:02:30.423Z,1002.41
2023-03-01T05:03:30.379Z,1002.41
2023-03-01T05:04:30.406Z,1002.45
2023-03-01T05:05:30.330Z,1002.47
2023-03-01T05:06:30.568Z,1002.48
2023-03-01T05:07:30.321Z,1002.47
2023-03-01T05:08:30.267Z,1002.49
2023-03-01T05:09:30.252Z,1002.46
2023-03-01T05:10:30.231Z,1002.45
2023-03-01T05:11:30.235Z,1002.49
2023-03-01T05:12:30.208Z,1002.47
2023-03-01T05:13:30.179Z,1002.49
2023-03-01T05:14:30.358Z,1002.45
2023-03-01T05:15:30.241Z,1002.47
2023-03-01T05:16:30.472Z,1002.49
2023-03-01T05:17:30.111Z,1002.46
2023-03-01T05:18:30.117Z,1002.46
2023-03-01T05:19:30.094Z,1002.44
2023-03-01T05:20:30.071Z,1002.45
2023-03-01T05:21:30.037Z,1002.48
2023-03-01T05:22:30.021Z,1002.45
2023-03-01T05:23:29.996Z,1002.46
2023-03-01T05:24:29.988Z,1002.44
2023-03-01T05:25:29.970Z,1002.46
2023-03-01T05:26:29.949Z,1002.47
2023-03-01T05:27:29.964Z,1002.47
2023-03-01T05:28:29.915Z,1002.48
2023-03-01T05:29:29.887Z,1002.50
2023-03-01T05:30:29.921Z,1002.50
2023-03-01T05:31:29.920Z,1002.48
2023-03-01T05:32:29.910Z,1002.48
2023-03-01T05:33:29.844Z,1002.50
2023-03-01T05:34:29.800Z,1002.49
2023-03-01T05:35:29.887Z,1002.43
2023-03-01T05:36:30.256Z,1002.45
2023-03-01T05:37:29.765Z,1002.42
2023-03-01T05:38:29.748Z,1002.39
2023-03-01T05:39:29.759Z,1002.46
2023-03-01T05:40:29.723Z,1002.51
2023-03-01T05:41:29.714Z,1002.46
2023-03-01T05:42:29.702Z,1002.47
2023-03-01T05:43:29.675Z,1002.45
2023-03-01T05:44:29.665Z,1002.46
2023-03-01T05:45:29.625Z,1002.44
2023-03-01T05:46:30.016Z,1002.44
2023-03-01T05:47:29.604Z,1002.43
2023-03-01T05:48:29.609Z,1002.40
2023-03-01T05:49:29.570Z,1002.44
2023-03-01T05:50:29.528Z,1002.40
2023-03-01T05:51:29.522Z,1002.43
2023-03-01T05:52:29.514Z,1002.39
2023-03-01T05:53:29.516Z,1002.42
2023-03-01T05:54:29.459Z,1002.40
2023-03-01T05:55:29.455Z,1002.41
2023-03-01T05:56:29.854Z,1002.42
2023-03-01T05:57:29.400Z,1002.37
2023-03-01T05:58:29.415Z,1002.44
2023-03-01T05:59:29.379Z,1002.45
2023-03-01T06:00:29.360Z,1002.46
2023-03-01T06:01:29.360Z,1002.50
2023-03-01T06:02:29.334Z,1002.52
2023-03-01T06:03:29.332Z,1002.48
2023-03-01T06:04:29.341Z,1002.52
2023-03-01T06:05:29.332Z,1002.52
2023-03-01T06:06:29.469Z,1002.52
2023-03-01T06:07:29.242Z,1002.48
2023-03-01T06:08:29.208Z,1002.51
2023-03-01T06:09:29.188Z,1002.53
2023-03-01T06:10:29.180Z,1002.54
2023-03-01T06:11:29.145Z,1002.53
2023-03-01T06:12:29.120Z,1002.50
2023-03-01T06:13:29.108Z,1002.49
2023-03-01T06:14:29.089Z,1002.46
2023-03-01T06:15:29.120Z,1002.53
2023-03-01T06:16:29.647Z,1002.58
2023-03-01T06:17:29.047Z,1002.53
2023-03-01T06:18:29.033Z,1002.56
2023-03-01T06:19:29.008Z,1002.60
2023-03-01T06:20:29.229Z,1002.56
2023-03-01T06:21:28.972Z,1002.56
2023-03-01T06:22:29.051Z,1002.58
2023-03-01T06:23:28.931Z,1002.60
2023-03-01T06:24:28.934Z,1002.63
2023-03-01T06:25:28.918Z,1002.68
2023-03-01T06:26:29.350Z,1002.64
2023-03-01T06:27:28.920Z,1002.68
2023-03-01T06:28:28.859Z,1002.70
2023-03-01T06:29:28.856Z,1002.73
2023-03-01T06:30:28.829Z,1002.72
2023-03-01T06:31:28.805Z,1002.75
2023-03-01T06:32:28.789Z,1002.77
2023-03-01T06:33:28.755Z,1002.80
2023-03-01T06:34:28.746Z,1002.83
2023-03-01T06:35:28.760Z,1002.85
2023-03-01T06:36:29.060Z,1002.88
2023-03-01T06:37:28.702Z,1002.86
2023-03-01T06:38:28.694Z,1002.88
2023-03-01T06:39:28.693Z,1002.93
2023-03-01T06:40:28.678Z,1002.92
2023-03-01T06:41:28.651Z,1002.93
2023-03-01T06:42:28.624Z,1002.96
2023-03-01T06:43:28.620Z,1002.95
2023-03-01T06:44:28.805Z,1002.99
2023-03-01T06:45:28.605Z,1003.07
2023-03-01T06:46:28.990Z,1003.07
2023-03-01T06:47:28.553Z,1003.05
2023-03-01T06:48:28.557Z,1003.04
2023-03-01T06:49:28.546Z,1003.08
2023-03-01T06:50:28.582Z,1003.08
2023-03-01T06:51:28.731Z,1003.10
2023-03-01T06:52:28.520Z,1003.09
2023-03-01T06:53:28.503Z,1003.14
2023-03-01T06:54:28.473Z,1003.12
2023-03-01T06:55:28.492Z,1003.16
2023-03-01T06:56:28.572Z,1003.17
2023-03-01T06:57:28.458Z,1003.25
2023-03-01T06:58:28.443Z,1003.30
2023-03-01T06:59:28.432Z,1003.38
2023-03-01T07:00:28.410Z,1003.47
2023-03-01T07:01:28.439Z,1003.52
2023-03-01T07:02:28.420Z,1003.53
2023-03-01T07:03:28.579Z,1003.63
2023-03-01T07:04:28.380Z,1003.69
2023-03-01T07:05:28.402Z,1003.74
2023-03-01T07:06:28.628Z,1003.54
2023-03-01T07:07:28.366Z,1003.41
2023-03-01T07:08:28.354Z,1003.19
2023-03-01T07:09:28.316Z,1003.06
2023-03-01T07:10:28.326Z,1003.03
2023-03-01T07:11:28.490Z,1003.02
2023-03-01T07:12:28.278Z,1003.02
2023-03-01T07:13:28.293Z,1003.05
2023-03-01T07:14:28.287Z,1002.99
2023-03-01T07:15:28.283Z,1003.00
2023-03-01T07:16:28.306Z,1003.00
2023-03-01T07:17:28.259Z,1003.01
2023-03-01T07:18:28.262Z,1002.98
2023-03-01T07:19:28.234Z,1003.00
2023-03-01T07:20:28.238Z,1003.01
2023-03-01T07:21:28.202Z,1003.00
2023-03-01T07:22:28.208Z,1002.94
2023-03-01T07:23:28.233Z,1002.90
2023-03-01T07:24:28.252Z,1002.88
2023-03-01T07:25:28.181Z,1002.89
2023-03-01T07:26:28.552Z,1002.94
2023-03-01T07:27:28.162Z,1003.05
2023-03-01T07:28:28.207Z,1003.12
2023-03-01T07:29:28.158Z,1003.17
2023-03-01T07:30:28.283Z,1003.18
2023-03-01T07:31:28.139Z,1003.22
2023-03-01T07:32:28.257Z,1003.23
2023-03-01T07:33:28.161Z,1003.26
2023-03-01T07:34:28.117Z,1003.26
2023-03-01T07:35:28.207Z,1003.29
2023-03-01T07:36:28.155Z,1003.27
2023-03-01T07:37:28.108Z,1003.27
2023-03-01T07:38:28.096Z,1003.26
2023-03-01T07:39:28.098Z,1003.35
2023-03-01T07:40:28.204Z,1003.40
2023-03-01T07:41:28.070Z,1003.42
2023-03-01T07:42:28.074Z,1003.40
2023-03-01T07:43:28.093Z,1003.45
2023-03-01T07:44:28.080Z,1003.45
2023-03-01T07:45:28.081Z,1003.48
2023-03-01T07:46:28.057Z,1003.55
2023-03-01T07:47:28.036Z,1003.53
2023-03-01T07:48:28.033Z,1003.56
2023-03-01T07:49:28.044Z,1003.54
2023-03-01T07:50:28.190Z,1003.53
2023-03-01T07:51:28.005Z,1003.53
2023-03-01T07:52:28.013Z,1003.50
2023-03-01T07:53:27.994Z,1003.56
2023-03-01T07:54:27.992Z,1003.58
2023-03-01T07:55:27.981Z,1003.47
2023-03-01T07:56:28.104Z,1003.40
2023-03-01T07:57:27.972Z,1003.35
2023-03-01T07:58:27.969Z,1003.36
2023-03-01T07:59:27.963Z,1003.32
2023-03-01T08:00:28.123Z,1003.36
2023-03-01T08:01:28.071Z,1003.55
2023-03-01T08:02:27.951Z,1003.67
2023-03-01T08:03:27.944Z,1003.64
2023-03-01T08:04:27.930Z,1003.47
2023-03-01T08:05:27.914Z,1003.28
2023-03-01T08:06:27.922Z,1003.18
2023-03-01T08:07:27.930Z,1003.18
2023-03-01T08:08:27.904Z,1003.11
2023-03-01T08:09:28.007Z,1003.09
2023-03-01T08:10:27.905Z,1003.09
2023-03-01T08:11:27.934Z,1003.10
2023-03-01T08:12:27.912Z,1003.03
2023-03-01T08:13:27.871Z,1003.12
2023-03-01T08:14:27.908Z,1003.03
2023-03-01T08:15:27.876Z,1003.03
2023-03-01T08:16:27.915Z,1003.02
2023-03-01T08:17:27.844Z,1003.09
2023-03-01T08:18:27.869Z,1003.18
2023-03-01T08:19:27.845Z,1003.22
2023-03-01T08:20:27.840Z,1003.11
2023-03-01T08:21:27.849Z,1002.97
2023-03-01T08:22:27.868Z,1002.92
2023-03-01T08:23:27.857Z,1002.93
2023-03-01T08:24:27.825Z,1002.90
2023-03-01T08:25:27.844Z,1002.93
2023-03-01T08:26:27.889Z,1002.87
2023-03-01T08:27:27.814Z,1002.85
2023-03-01T08:28:27.892Z,1002.84
2023-03-01T08:29:27.903Z,1002.84
2023-03-01T08:30:27.799Z,1002.84
2023-03-01T08:31:27.854Z,1002.80
2023-03-01T08:32:27.850Z,1002.74
2023-03-01T08:33:27.882Z,1002.66
2023-03-01T08:34:27.760Z,1002.62
2023-03-01T08:35:27.802Z,1002.64
2023-03-01T08:36:27.798Z,1002.59
2023-03-01T08:37:27.784Z,1002.63
2023-03-01T08:38:27.778Z,1002.61
2023-03-01T08:39:27.778Z,1002.59
2023-03-01T08:40:27.732Z,1002.60
2023-03-01T08:41:27.753Z,1002.60
2023-03-01T08:42:27.754Z,1002.61
2023-03-01T08:43:27.719Z,1002.59
2023-03-01T08:44:27.765Z,1002.57
2023-03-01T08:45:27.809Z,1002.58
2023-03-01T08:46:27.694Z,1002.56
2023-03-01T08:47:27.763Z,1002.57
2023-03-01T08:48:27.710Z,1002.52
2023-03-01T08:49:27.714Z,1002.54
2023-03-01T08:50:27.685Z,1002.52
2023-03-01T08:51:27.690Z,1002.51
2023-03-01T08:52:27.676Z,1002.51
2023-03-01T08:53:27.652Z,1002.47
2023-03-01T08:54:27.689Z,1002.51
2023-03-01T08:55:27.656Z,1002.51
2023-03-01T08:56:27.647Z,1002.50
2023-03-01T08:57:27.625Z,1002.49
2023-03-01T08:58:27.618Z,1002.47
2023-03-01T08:59:27.639Z,1002.44
2023-03-01T09:00:27.877Z,1002.42
2023-03-01T09:01:27.625Z,1002.40
2023-03-01T09:02:27.795Z,1002.39
2023-03-01T09:03:27.597Z,1002.37
2023-03-01T09:04:27.797Z,1002.37
2023-03-01T09:05:27.656Z,1002.38
2023-03-01T09:06:27.629Z,1002.37
2023-03-01T09:07:27.614Z,1002.32
2023-03-01T09:08:27.627Z,1002.36
2023-03-01T09:09:27.598Z,1002.32
2023-03-01T09:10:27.607Z,1002.29
2023-03-01T09:11:27.565Z,1002.22
2023-03-01T09:12:27.589Z,1002.21
2023-03-01T09:13:27.553Z,1002.18
2023-03-01T09:14:27.578Z,1002.19
2023-03-01T09:15:27.550Z,1002.19
2023-03-01T09:16:27.701Z,1002.20
2023-03-01T09:17:27.538Z,1002.17
2023-03-01T09:18:27.501Z,1002.18
2023-03-01T09:19:27.593Z,1002.19
2023-03-01T09:20:27.502Z,1002.15
2023-03-01T09:21:39.682Z,1002.20
2023-03-01T09:22:27.481Z,1002.20
2023-03-01T09:23:27.514Z,1002.17
2023-03-01T09:24:27.480Z,1002.16
2023-03-01T09:25:27.473Z,1002.21
2023-03-01T09:26:27.500Z,1002.21
2023-03-01T09:27:27.508Z,1002.23
2023-03-01T09:28:30.025Z,1002.27
2023-03-01T09:29:27.457Z,1002.28
2023-03-01T09:30:27.471Z,1002.24
2023-03-01T09:31:27.462Z,1002.25
2023-03-01T09:32:27.545Z,1002.29
2023-03-01T09:33:27.445Z,1002.27
2023-03-01T09:34:27.424Z,1002.24
2023-03-01T09:35:27.426Z,1002.29
2023-03-01T09:36:27.450Z,1002.25
2023-03-01T09:37:27.407Z,1002.26
2023-03-01T09:38:27.392Z,1002.23
2023-03-01T09:39:27.405Z,1002.27
2023-03-01T09:40:27.410Z,1002.26
2023-03-01T09:41:27.408Z,1002.23
2023-03-01T09:42:27.378Z,1002.22
2023-03-01T09:43:27.377Z,1002.20
2023-03-01T09:44:27.584Z,1002.22
2023-03-01T09:45:27.381Z,1002.18
2023-03-01T09:46:27.468Z,1002.18
2023-03-01T09:47:27.413Z,1002.17
2023-03-01T09:48:27.386Z,1002.18
2023-03-01T09:49:27.350Z,1002.19
2023-03-01T09:50:27.360Z,1002.21
2023-03-01T09:51:27.404Z,1002.24
2023-03-01T09:52:27.359Z,1002.23
2023-03-01T09:53:27.293Z,1002.19
2023-03-01T09:54:27.334Z,1002.21
2023-03-01T09:55:27.324Z,1002.18
2023-03-01T09:56:27.272Z,1002.18
2023-03-01T09:57:27.354Z,1002.14
2023-03-01T09:58:27.278Z,1002.17
2023-03-01T09:59:27.290Z,1002.17
2023-03-01T10:00:27.325Z,1002.17
2023-03-01T10:01:27.315Z,1002.19
2023-03-01T10:02:27.268Z,1002.22
2023-03-01T10:03:27.289Z,1002.24
2023-03-01T10:04:27.320Z,1002.23
2023-03-01T10:05:27.273Z,1002.27
2023-03-01T10:06:35.054Z,1002.24
2023-03-01T10:07:27.209Z,1002.24
2023-03-01T10:08:27.210Z,1002.26
2023-03-01T10:09:27.241Z,1002.16
2023-03-01T10:10:27.220Z,1002.11
2023-03-01T10:11:27.186Z,1002.05
2023-03-01T10:12:27.188Z,1002.03
2023-03-01T10:13:27.202Z,1002.02
2023-03-01T10:14:27.159Z,1001.97
2023-03-01T10:15:27.156Z,1001.98
2023-03-01T10:16:27.127Z,1001.94
2023-03-01T10:17:27.132Z,1001.96
2023-03-01T10:18:27.124Z,1002.00
2023-03-01T10:19:27.112Z,1001.99
2023-03-01T10:20:27.142Z,1001.91
2023-03-01T10:21:27.141Z,1001.88
2023-03-01T10:22:27.134Z,1001.86
2023-03-01T10:23:27.108Z,1001.81
2023-03-01T10:24:27.068Z,1001.81
2023-03-01T10:25:27.101Z,1001.83
2023-03-01T10:26:27.044Z,1001.82
2023-03-01T10:27:27.028Z,1001.82
2023-03-01T10:28:27.031Z,1001.75
2023-03-01T10:29:27.000Z,1001.72
2023-03-01T10:30:26.983Z,1001.73
2023-03-01T10:31:26.998Z,1001.77
2023-03-01T10:32:27.069Z,1001.75
2023-03-01T10:33:26.992Z,1001.67
2023-03-01T10:34:26.979Z,1001.65
2023-03-01T10:35:26.939Z,1001.68
2023-03-01T10:36:26.967Z,1001.72
2023-03-01T10:37:26.938Z,1001.66
2023-03-01T10:38:26.993Z,1001.66
2023-03-01T10:39:26.996Z,1001.63
2023-03-01T10:40:26.912Z,1001.60
2023-03-01T10:41:26.880Z,1001.60
2023-03-01T10:42:26.908Z,1001.62
2023-03-01T10:43:26.873Z,1001.63
2023-03-01T10:44:26.853Z,1001.58
2023-03-01T10:45:27.015Z,1001.59
2023-03-01T10:46:26.920Z,1001.54
2023-03-01T10:47:26.864Z,1001.53
2023-03-01T10:48:26.804Z,1001.50
2023-03-01T10:49:26.798Z,1001.48
2023-03-01T10:50:26.782Z,1001.51
2023-03-01T10:51:26.747Z,1001.50
2023-03-01T10:52:26.825Z,1001.46
2023-03-01T10:53:26.784Z,1001.47
2023-03-01T10:54:26.727Z,1001.51
2023-03-01T10:55:26.706Z,1001.50
2023-03-01T10:56:26.706Z,1001.49
2023-03-01T10:57:26.687Z,1001.48
2023-03-01T10:58:26.725Z,1001.50
2023-03-01T10:59:26.668Z,1001.42
2023-03-01T11:00:26.707Z,1001.42
2023-03-01T11:01:26.930Z,1001.44
2023-03-01T11:02:26.754Z,1001.47
2023-03-01T11:03:26.687Z,1001.37
2023-03-01T11:04:26.688Z,1001.39
2023-03-01T11:05:26.585Z,1001.38
2023-03-01T11:06:26.613Z,1001.36
2023-03-01T11:07:26.584Z,1001.37
2023-03-01T11:08:26.570Z,1001.38
2023-03-01T11:09:26.534Z,1001.44
2023-03-01T11:10:26.544Z,1001.43
2023-03-01T11:11:26.538Z,1001.40
2023-03-01T11:12:26.533Z,1001.35
2023-03-01T11:13:26.530Z,1001.37
2023-03-01T11:14:27.724Z,1001.33
2023-03-01T11:15:26.488Z,1001.36
2023-03-01T11:16:26.592Z,1001.28
2023-03-01T11:17:26.439Z,1001.32
2023-03-01T11:18:40.661Z,1001.29
2023-03-01T11:19:26.433Z,1001.30
2023-03-01T11:20:28.349Z,1001.32
2023-03-01T11:21:26.398Z,1001.30
2023-03-01T11:22:26.434Z,1001.28
2023-03-01T11:23:26.387Z,1001.30
2023-03-01T11:24:26.392Z,1001.34
2023-03-01T11:25:26.359Z,1001.32
2023-03-01T11:26:26.386Z,1001.31
2023-03-01T11:27:26.334Z,1001.35
2023-03-01T11:28:28.004Z,1001.34
2023-03-01T11:29:26.317Z,1001.35
2023-03-01T11:30:26.312Z,1001.35
2023-03-01T11:31:26.360Z,1001.35
2023-03-01T11:32:26.491Z,1001.35
2023-03-01T11:33:26.261Z,1001.36
2023-03-01T11:34:26.257Z,1001.35
2023-03-01T11:35:26.314Z,1001.37
2023-03-01T11:36:26.282Z,1001.38
2023-03-01T11:37:26.230Z,1001.34
2023-03-01T11:38:26.232Z,1001.33
2023-03-01T11:39:26.231Z,1001.32
2023-03-01T11:40:26.234Z,1001.30
2023-03-01T11:41:26.174Z,1001.29
2023-03-01T11:42:26.165Z,1001.30
2023-03-01T11:43:26.155Z,1001.26
2023-03-01T11:44:26.147Z,1001.33
2023-03-01T11:45:26.137Z,1001.28
2023-03-01T11:46:26.362Z,1001.32
2023-03-01T11:47:26.268Z,1001.27
2023-03-01T11:48:26.113Z,1001.25
2023-03-01T11:49:26.097Z,1001.20
2023-03-01T11:50:26.051Z,1001.20
2023-03-01T11:51:26.081Z,1001.11
2023-03-01T11:52:26.022Z,1001.18
2023-03-01T11:53:26.014Z,1001.15
2023-03-01T11:54:26.073Z,1001.13
2023-03-01T11:55:26.036Z,1001.11
2023-03-01T11:56:26.110Z,1001.12
2023-03-01T11:57:34.165Z,1001.07
2023-03-01T11:58:25.954Z,1001.09
2023-03-01T11:59:25.975Z,1001.06
2023-03-01T12:00:26.001Z,1001.08
2023-03-01T12:01:25.910Z,1001.08
2023-03-01T12:02:25.951Z,1001.04
2023-03-01T12:03:25.880Z,1001.01
2023-03-01T12:04:26.021Z,1000.97
2023-03-01T12:05:25.898Z,1001.00
2023-03-01T12:06:25.863Z,1000.95